sensor_id;sensor_type;location;lat;lon;timestamp;pressure;altitude;pressure_sealevel;temperature;humidity
76086;BME280;64791;0.000;0.000;2023-08-07T00:01:13;93302.78;;;14.56;69.29
76086;BME280;64791;0.000;0.000;2023-08-07T00:03:38;93300.47;;;14.83;68.26
76086;BME280;64791;0.000;0.000;2023-08-07T00:06:04;93296.44;;;14.75;67.31
76086;BME280;64791;0.000;0.000;2023-08-07T00:08:29;93303.31;;;14.74;68.03
76086;BME280;64791;0.000;0.000;2023-08-07T00:11:06;93301.63;;;14.30;70.33
76086;BME280;64791;0.000;0.000;2023-08-07T00:13:32;93302.91;;;14.58;69.81
76086;BME280;64791;0.000;0.000;2023-08-07T00:15:58;93306.63;;;13.94;72.30
76086;BME280;64791;0.000;0.000;2023-08-07T00:18:24;93302.97;;;14.10;71.83
76086;BME280;64791;0.000;0.000;2023-08-07T00:20:49;93296.72;;;13.91;73.38
76086;BME280;64791;0.000;0.000;2023-08-07T00:23:15;93296.88;;;13.64;73.89
76086;BME280;64791;0.000;0.000;2023-08-07T00:25:41;93296.56;;;13.70;73.98
76086;BME280;64791;0.000;0.000;2023-08-07T00:28:06;93293.50;;;13.46;74.77
76086;BME280;64791;0.000;0.000;2023-08-07T00:30:32;93288.25;;;13.60;74.25
76086;BME280;64791;0.000;0.000;2023-08-07T00:32:58;93291.63;;;13.68;73.48
76086;BME280;64791;0.000;0.000;2023-08-07T00:35:23;93299.03;;;13.85;72.96
76086;BME280;64791;0.000;0.000;2023-08-07T00:37:49;93313.34;;;14.00;72.65
76086;BME280;64791;0.000;0.000;2023-08-07T00:40:16;93315.66;;;14.23;71.28
76086;BME280;64791;0.000;0.000;2023-08-07T00:42:42;93323.09;;;14.30;70.70
76086;BME280;64791;0.000;0.000;2023-08-07T00:45:08;93327.34;;;13.83;73.25
76086;BME280;64791;0.000;0.000;2023-08-07T00:47:34;93326.31;;;13.88;74.10
76086;BME280;64791;0.000;0.000;2023-08-07T00:50:01;93327.50;;;13.85;73.87
76086;BME280;64791;0.000;0.000;2023-08-07T00:52:29;93335.09;;;14.04;73.04
76086;BME280;64791;0.000;0.000;2023-08-07T00:54:54;93335.47;;;14.58;72.33
76086;BME280;64791;0.000;0.000;2023-08-07T00:57:21;93329.78;;;14.65;70.71
76086;BME280;64791;0.000;0.000;2023-08-07T00:59:48;93326.16;;;14.53;70.73
76086;BME280;64791;0.000;0.000;2023-08-07T01:02:14;93329.66;;;14.54;70.65
76086;BME280;64791;0.000;0.000;2023-08-07T01:04:40;93334.47;;;14.63;70.11
76086;BME280;64791;0.000;0.000;2023-08-07T01:07:07;93340.44;;;14.59;70.14
76086;BME280;64791;0.000;0.000;2023-08-07T01:09:32;93335.94;;;14.45;70.35
76086;BME280;64791;0.000;0.000;2023-08-07T01:12:06;93344.28;;;14.25;71.32
76086;BME280;64791;0.000;0.000;2023-08-07T01:14:40;93358.56;;;14.51;70.85
76086;BME280;64791;0.000;0.000;2023-08-07T01:17:14;93355.78;;;14.51;70.46
76086;BME280;64791;0.000;0.000;2023-08-07T01:19:41;93343.69;;;14.46;70.45
76086;BME280;64791;0.000;0.000;2023-08-07T01:22:10;93346.63;;;14.19;71.78
76086;BME280;64791;0.000;0.000;2023-08-07T01:24:38;93340.47;;;14.02;73.02
76086;BME280;64791;0.000;0.000;2023-08-07T01:29:36;93350.69;;;14.18;71.75
76086;BME280;64791;0.000;0.000;2023-08-07T01:32:07;93341.19;;;14.12;72.61
76086;BME280;64791;0.000;0.000;2023-08-07T01:34:33;93353.03;;;14.41;71.76
76086;BME280;64791;0.000;0.000;2023-08-07T01:37:00;93352.28;;;14.60;72.68
76086;BME280;64791;0.000;0.000;2023-08-07T01:39:28;93354.72;;;14.84;72.83
76086;BME280;64791;0.000;0.000;2023-08-07T01:41:54;93360.19;;;15.03;71.83
76086;BME280;64791;0.000;0.000;2023-08-07T01:44:20;93354.25;;;14.88;72.02
76086;BME280;64791;0.000;0.000;2023-08-07T01:46:46;93348.97;;;14.92;72.15
76086;BME280;64791;0.000;0.000;2023-08-07T01:49:12;93348.03;;;14.68;72.38
76086;BME280;64791;0.000;0.000;2023-08-07T01:51:37;93344.81;;;14.72;73.20
76086;BME280;64791;0.000;0.000;2023-08-07T01:54:03;93342.81;;;14.93;72.84
76086;BME280;64791;0.000;0.000;2023-08-07T01:56:28;93359.75;;;15.38;72.16
76086;BME280;64791;0.000;0.000;2023-08-07T01:58:54;93357.84;;;15.40;71.82
76086;BME280;64791;0.000;0.000;2023-08-07T02:01:20;93355.47;;;15.46;71.45
76086;BME280;64791;0.000;0.000;2023-08-07T02:03:45;93353.69;;;15.20;71.43
76086;BME280;64791;0.000;0.000;2023-08-07T02:06:11;93363.50;;;15.21;71.60
76086;BME280;64791;0.000;0.000;2023-08-07T02:08:37;93354.19;;;15.38;71.14
76086;BME280;64791;0.000;0.000;2023-08-07T02:11:03;93353.59;;;15.08;71.54
76086;BME280;64791;0.000;0.000;2023-08-07T02:13:28;93358.19;;;14.94;71.56
76086;BME280;64791;0.000;0.000;2023-08-07T02:15:54;93362.09;;;15.01;71.68
76086;BME280;64791;0.000;0.000;2023-08-07T02:18:19;93367.56;;;15.30;71.89
76086;BME280;64791;0.000;0.000;2023-08-07T02:20:45;93367.63;;;15.51;70.84
76086;BME280;64791;0.000;0.000;2023-08-07T02:23:11;93367.47;;;15.49;70.42
76086;BME280;64791;0.000;0.000;2023-08-07T02:25:37;93370.13;;;15.37;70.86
76086;BME280;64791;0.000;0.000;2023-08-07T02:28:03;93385.78;;;15.73;70.91
76086;BME280;64791;0.000;0.000;2023-08-07T02:30:30;93387.25;;;15.74;70.87
76086;BME280;64791;0.000;0.000;2023-08-07T02:32:56;93387.78;;;15.82;71.27
76086;BME280;64791;0.000;0.000;2023-08-07T02:35:21;93386.38;;;15.71;71.17
76086;BME280;64791;0.000;0.000;2023-08-07T02:37:47;93386.06;;;15.77;68.94
76086;BME280;64791;0.000;0.000;2023-08-07T02:40:13;93387.63;;;15.59;69.55
76086;BME280;64791;0.000;0.000;2023-08-07T02:42:41;93384.47;;;15.95;70.42
76086;BME280;64791;0.000;0.000;2023-08-07T02:45:08;93392.03;;;16.04;70.49
76086;BME280;64791;0.000;0.000;2023-08-07T02:47:33;93380.56;;;16.10;70.64
76086;BME280;64791;0.000;0.000;2023-08-07T02:49:59;93381.50;;;16.24;69.27
76086;BME280;64791;0.000;0.000;2023-08-07T02:52:25;93387.19;;;16.26;68.97
76086;BME280;64791;0.000;0.000;2023-08-07T02:54:50;93394.03;;;16.13;69.78
76086;BME280;64791;0.000;0.000;2023-08-07T02:57:16;93384.13;;;16.22;69.24
76086;BME280;64791;0.000;0.000;2023-08-07T02:59:42;93389.50;;;16.29;69.02
76086;BME280;64791;0.000;0.000;2023-08-07T03:02:08;93387.78;;;16.24;69.01
76086;BME280;64791;0.000;0.000;2023-08-07T03:04:33;93394.06;;;16.25;68.81
76086;BME280;64791;0.000;0.000;2023-08-07T03:06:59;93397.22;;;16.31;67.92
76086;BME280;64791;0.000;0.000;2023-08-07T03:09:25;93395.19;;;16.31;68.29
76086;BME280;64791;0.000;0.000;2023-08-07T03:11:51;93394.66;;;16.23;68.23
76086;BME280;64791;0.000;0.000;2023-08-07T03:14:16;93396.53;;;16.30;67.35
76086;BME280;64791;0.000;0.000;2023-08-07T03:16:42;93413.28;;;16.21;67.25
76086;BME280;64791;0.000;0.000;2023-08-07T03:19:08;93415.75;;;16.26;67.73
76086;BME280;64791;0.000;0.000;2023-08-07T03:21:34;93415.66;;;16.15;67.26
76086;BME280;64791;0.000;0.000;2023-08-07T03:23:59;93418.41;;;16.24;68.31
76086;BME280;64791;0.000;0.000;2023-08-07T03:26:25;93422.03;;;16.27;68.17
76086;BME280;64791;0.000;0.000;2023-08-07T03:28:51;93423.50;;;16.28;68.27
76086;BME280;64791;0.000;0.000;2023-08-07T03:31:17;93426.78;;;16.36;67.54
76086;BME280;64791;0.000;0.000;2023-08-07T03:33:43;93431.03;;;16.37;67.78
76086;BME280;64791;0.000;0.000;2023-08-07T03:36:09;93432.63;;;16.40;68.17
76086;BME280;64791;0.000;0.000;2023-08-07T03:38:35;93427.66;;;16.38;68.32
76086;BME280;64791;0.000;0.000;2023-08-07T03:41:01;93442.81;;;16.47;67.27
76086;BME280;64791;0.000;0.000;2023-08-07T03:43:28;93432.44;;;16.47;67.12
76086;BME280;64791;0.000;0.000;2023-08-07T03:45:57;93428.19;;;16.46;67.97
76086;BME280;64791;0.000;0.000;2023-08-07T03:48:22;93434.09;;;16.41;68.10
76086;BME280;64791;0.000;0.000;2023-08-07T03:50:49;93429.03;;;16.49;67.69
76086;BME280;64791;0.000;0.000;2023-08-07T03:53:16;93441.44;;;16.57;67.55
76086;BME280;64791;0.000;0.000;2023-08-07T03:55:48;93443.88;;;16.63;67.67
76086;BME280;64791;0.000;0.000;2023-08-07T03:58:14;93445.97;;;16.63;68.08
76086;BME280;64791;0.000;0.000;2023-08-07T04:00:40;93448.41;;;16.68;67.09
76086;BME280;64791;0.000;0.000;2023-08-07T04:03:06;93453.72;;;16.64;67.63
76086;BME280;64791;0.000;0.000;2023-08-07T04:05:33;93466.09;;;16.73;66.24
76086;BME280;64791;0.000;0.000;2023-08-07T04:07:58;93467.69;;;16.76;65.91
76086;BME280;64791;0.000;0.000;2023-08-07T04:10:24;93468.16;;;16.72;66.87
76086;BME280;64791;0.000;0.000;2023-08-07T04:12:51;93464.38;;;16.68;65.66
76086;BME280;64791;0.000;0.000;2023-08-07T04:15:16;93470.34;;;16.74;66.27
76086;BME280;64791;0.000;0.000;2023-08-07T04:17:42;93473.41;;;16.78;66.53
76086;BME280;64791;0.000;0.000;2023-08-07T04:20:08;93477.03;;;16.59;65.80
76086;BME280;64791;0.000;0.000;2023-08-07T04:22:34;93467.03;;;16.66;65.26
76086;BME280;64791;0.000;0.000;2023-08-07T04:25:00;93484.84;;;16.72;65.69
76086;BME280;64791;0.000;0.000;2023-08-07T04:27:26;93488.25;;;16.71;65.79
76086;BME280;64791;0.000;0.000;2023-08-07T04:29:52;93481.94;;;16.70;65.15
76086;BME280;64791;0.000;0.000;2023-08-07T04:32:18;93478.88;;;16.87;66.72
76086;BME280;64791;0.000;0.000;2023-08-07T04:34:44;93481.00;;;16.77;64.25
76086;BME280;64791;0.000;0.000;2023-08-07T04:37:10;93480.78;;;16.85;64.33
76086;BME280;64791;0.000;0.000;2023-08-07T04:39:36;93478.53;;;16.93;65.57
76086;BME280;64791;0.000;0.000;2023-08-07T04:42:02;93479.81;;;17.13;66.15
76086;BME280;64791;0.000;0.000;2023-08-07T04:44:28;93471.75;;;17.28;65.27
76086;BME280;64791;0.000;0.000;2023-08-07T04:46:53;93477.13;;;17.48;64.26
76086;BME280;64791;0.000;0.000;2023-08-07T04:49:19;93475.09;;;17.60;63.06
76086;BME280;64791;0.000;0.000;2023-08-07T04:51:45;93470.75;;;17.80;63.42
76086;BME280;64791;0.000;0.000;2023-08-07T04:54:11;93476.44;;;18.05;61.51
76086;BME280;64791;0.000;0.000;2023-08-07T04:56:37;93468.53;;;18.25;59.29
76086;BME280;64791;0.000;0.000;2023-08-07T04:59:03;93476.16;;;18.24;59.89
76086;BME280;64791;0.000;0.000;2023-08-07T05:01:29;93473.16;;;18.43;57.60
76086;BME280;64791;0.000;0.000;2023-08-07T05:03:55;93460.53;;;18.42;57.00
76086;BME280;64791;0.000;0.000;2023-08-07T05:06:20;93467.81;;;18.47;56.56
76086;BME280;64791;0.000;0.000;2023-08-07T05:08:46;93469.25;;;18.48;58.61
76086;BME280;64791;0.000;0.000;2023-08-07T05:11:12;93459.03;;;18.53;56.67
76086;BME280;64791;0.000;0.000;2023-08-07T05:13:38;93465.69;;;18.59;57.80
76086;BME280;64791;0.000;0.000;2023-08-07T05:16:03;93465.78;;;18.73;58.09
76086;BME280;64791;0.000;0.000;2023-08-07T05:18:29;93453.84;;;18.84;56.58
76086;BME280;64791;0.000;0.000;2023-08-07T05:20:55;93456.34;;;18.92;56.20
76086;BME280;64791;0.000;0.000;2023-08-07T05:23:21;93442.19;;;18.76;55.42
76086;BME280;64791;0.000;0.000;2023-08-07T05:25:47;93443.75;;;18.91;55.53
76086;BME280;64791;0.000;0.000;2023-08-07T05:28:13;93441.31;;;18.85;56.81
76086;BME280;64791;0.000;0.000;2023-08-07T05:30:40;93440.09;;;18.88;55.68
76086;BME280;64791;0.000;0.000;2023-08-07T05:33:06;93437.91;;;19.12;53.92
76086;BME280;64791;0.000;0.000;2023-08-07T05:35:32;93442.75;;;19.23;54.28
76086;BME280;64791;0.000;0.000;2023-08-07T05:37:58;93429.69;;;19.27;54.19
76086;BME280;64791;0.000;0.000;2023-08-07T05:40:23;93437.50;;;19.29;54.85
76086;BME280;64791;0.000;0.000;2023-08-07T05:42:49;93435.22;;;19.39;54.38
76086;BME280;64791;0.000;0.000;2023-08-07T05:45:15;93446.34;;;19.50;54.80
76086;BME280;64791;0.000;0.000;2023-08-07T05:47:41;93436.53;;;19.24;55.39
76086;BME280;64791;0.000;0.000;2023-08-07T05:50:07;93445.31;;;19.57;55.15
76086;BME280;64791;0.000;0.000;2023-08-07T05:52:33;93443.59;;;19.78;53.54
76086;BME280;64791;0.000;0.000;2023-08-07T05:54:59;93447.44;;;19.84;54.28
76086;BME280;64791;0.000;0.000;2023-08-07T05:57:25;93449.00;;;19.87;53.21
76086;BME280;64791;0.000;0.000;2023-08-07T05:59:50;93443.31;;;19.99;52.23
76086;BME280;64791;0.000;0.000;2023-08-07T06:02:16;93443.22;;;19.97;51.34
76086;BME280;64791;0.000;0.000;2023-08-07T06:04:42;93453.22;;;19.75;54.24
76086;BME280;64791;0.000;0.000;2023-08-07T06:07:08;93458.00;;;19.86;53.85
76086;BME280;64791;0.000;0.000;2023-08-07T06:09:34;93455.19;;;20.11;53.89
76086;BME280;64791;0.000;0.000;2023-08-07T06:12:00;93459.13;;;20.19;53.69
76086;BME280;64791;0.000;0.000;2023-08-07T06:14:26;93451.31;;;20.45;52.00
76086;BME280;64791;0.000;0.000;2023-08-07T06:16:52;93459.25;;;20.78;52.95
76086;BME280;64791;0.000;0.000;2023-08-07T06:19:18;93461.38;;;21.06;51.53
76086;BME280;64791;0.000;0.000;2023-08-07T06:21:45;93451.38;;;21.17;50.96
76086;BME280;64791;0.000;0.000;2023-08-07T06:24:11;93452.19;;;21.20;51.30
76086;BME280;64791;0.000;0.000;2023-08-07T06:26:37;93460.16;;;21.54;51.55
76086;BME280;64791;0.000;0.000;2023-08-07T06:29:03;93446.25;;;21.87;49.50
76086;BME280;64791;0.000;0.000;2023-08-07T06:31:29;93453.59;;;22.10;50.39
76086;BME280;64791;0.000;0.000;2023-08-07T06:33:55;93438.34;;;22.15;48.30
76086;BME280;64791;0.000;0.000;2023-08-07T06:36:21;93444.38;;;22.56;47.44
76086;BME280;64791;0.000;0.000;2023-08-07T06:38:47;93450.44;;;22.84;45.84
76086;BME280;64791;0.000;0.000;2023-08-07T06:41:13;93435.13;;;22.87;46.37
76086;BME280;64791;0.000;0.000;2023-08-07T06:43:39;93444.00;;;23.15;44.72
76086;BME280;64791;0.000;0.000;2023-08-07T06:46:04;93455.19;;;23.48;43.01
76086;BME280;64791;0.000;0.000;2023-08-07T06:48:30;93459.50;;;23.69;43.30
76086;BME280;64791;0.000;0.000;2023-08-07T06:50:56;93461.13;;;23.74;41.99
76086;BME280;64791;0.000;0.000;2023-08-07T06:53:22;93463.69;;;23.68;42.95
76086;BME280;64791;0.000;0.000;2023-08-07T06:55:47;93462.06;;;24.18;39.33
76086;BME280;64791;0.000;0.000;2023-08-07T06:58:13;93460.53;;;24.34;39.94
76086;BME280;64791;0.000;0.000;2023-08-07T07:00:39;93465.56;;;24.36;40.25
76086;BME280;64791;0.000;0.000;2023-08-07T07:03:05;93459.06;;;24.51;39.74
76086;BME280;64791;0.000;0.000;2023-08-07T07:05:33;93457.72;;;24.73;38.03
76086;BME280;64791;0.000;0.000;2023-08-07T07:08:00;93475.66;;;24.82;38.64
76086;BME280;64791;0.000;0.000;2023-08-07T07:10:26;93472.88;;;25.04;38.71
76086;BME280;64791;0.000;0.000;2023-08-07T07:12:52;93470.66;;;25.00;38.63
76086;BME280;64791;0.000;0.000;2023-08-07T07:15:18;93467.38;;;25.51;37.12
76086;BME280;64791;0.000;0.000;2023-08-07T07:17:43;93465.53;;;25.59;37.07
76086;BME280;64791;0.000;0.000;2023-08-07T07:20:09;93471.25;;;25.61;37.55
76086;BME280;64791;0.000;0.000;2023-08-07T07:22:36;93460.59;;;26.05;35.69
76086;BME280;64791;0.000;0.000;2023-08-07T07:25:03;93464.19;;;26.31;35.94
76086;BME280;64791;0.000;0.000;2023-08-07T07:27:28;93459.94;;;26.07;36.59
76086;BME280;64791;0.000;0.000;2023-08-07T07:29:54;93448.22;;;26.66;34.28
76086;BME280;64791;0.000;0.000;2023-08-07T07:32:20;93451.91;;;26.98;33.54
76086;BME280;64791;0.000;0.000;2023-08-07T07:34:46;93459.56;;;26.93;32.34
76086;BME280;64791;0.000;0.000;2023-08-07T07:37:12;93457.59;;;26.72;32.87
76086;BME280;64791;0.000;0.000;2023-08-07T07:39:39;93459.13;;;26.77;33.40
76086;BME280;64791;0.000;0.000;2023-08-07T07:42:06;93466.44;;;27.12;33.75
76086;BME280;64791;0.000;0.000;2023-08-07T07:44:33;93459.28;;;27.37;33.53
76086;BME280;64791;0.000;0.000;2023-08-07T07:47:00;93454.97;;;27.36;32.35
76086;BME280;64791;0.000;0.000;2023-08-07T07:49:26;93453.34;;;27.56;30.57
76086;BME280;64791;0.000;0.000;2023-08-07T07:51:52;93460.50;;;27.57;30.22
76086;BME280;64791;0.000;0.000;2023-08-07T07:54:17;93460.06;;;27.69;31.84
76086;BME280;64791;0.000;0.000;2023-08-07T07:56:43;93459.56;;;27.78;32.69
76086;BME280;64791;0.000;0.000;2023-08-07T07:59:09;93453.59;;;27.96;30.16
76086;BME280;64791;0.000;0.000;2023-08-07T08:01:35;93459.44;;;28.04;30.35
76086;BME280;64791;0.000;0.000;2023-08-07T08:04:01;93455.00;;;28.27;31.58
76086;BME280;64791;0.000;0.000;2023-08-07T08:06:27;93453.97;;;28.46;30.95
76086;BME280;64791;0.000;0.000;2023-08-07T08:08:53;93446.69;;;28.37;28.46
76086;BME280;64791;0.000;0.000;2023-08-07T08:11:18;93444.56;;;28.37;31.63
76086;BME280;64791;0.000;0.000;2023-08-07T08:13:44;93441.56;;;28.65;31.78
76086;BME280;64791;0.000;0.000;2023-08-07T08:16:10;93441.66;;;28.69;29.79
76086;BME280;64791;0.000;0.000;2023-08-07T08:18:36;93437.81;;;28.90;30.90
76086;BME280;64791;0.000;0.000;2023-08-07T08:21:02;93440.69;;;28.92;28.77
76086;BME280;64791;0.000;0.000;2023-08-07T08:23:28;93447.53;;;28.79;29.73
76086;BME280;64791;0.000;0.000;2023-08-07T08:25:53;93447.00;;;28.89;31.07
76086;BME280;64791;0.000;0.000;2023-08-07T08:28:19;93441.53;;;29.39;28.60
76086;BME280;64791;0.000;0.000;2023-08-07T08:30:45;93448.50;;;29.32;29.55
76086;BME280;64791;0.000;0.000;2023-08-07T08:33:11;93451.91;;;29.66;28.66
76086;BME280;64791;0.000;0.000;2023-08-07T08:35:40;93453.94;;;29.59;30.05
76086;BME280;64791;0.000;0.000;2023-08-07T08:38:06;93446.28;;;29.70;27.74
76086;BME280;64791;0.000;0.000;2023-08-07T08:40:31;93447.78;;;29.75;29.69
76086;BME280;64791;0.000;0.000;2023-08-07T08:43:01;93442.53;;;30.03;29.34
76086;BME280;64791;0.000;0.000;2023-08-07T08:45:27;93441.91;;;29.65;28.53
76086;BME280;64791;0.000;0.000;2023-08-07T08:47:55;93432.34;;;29.86;28.66
76086;BME280;64791;0.000;0.000;2023-08-07T08:50:23;93424.94;;;29.69;27.80
76086;BME280;64791;0.000;0.000;2023-08-07T08:52:49;93433.72;;;29.85;29.09
76086;BME280;64791;0.000;0.000;2023-08-07T08:55:16;93423.56;;;30.22;28.28
76086;BME280;64791;0.000;0.000;2023-08-07T08:57:43;93422.91;;;30.25;28.09
76086;BME280;64791;0.000;0.000;2023-08-07T09:00:09;93423.16;;;30.43;27.64
76086;BME280;64791;0.000;0.000;2023-08-07T09:02:49;93418.81;;;29.86;28.24
76086;BME280;64791;0.000;0.000;2023-08-07T09:05:16;93420.25;;;30.39;26.71
76086;BME280;64791;0.000;0.000;2023-08-07T09:07:42;93423.75;;;30.38;28.93
76086;BME280;64791;0.000;0.000;2023-08-07T09:10:09;93421.09;;;30.48;25.15
76086;BME280;64791;0.000;0.000;2023-08-07T09:12:35;93414.31;;;30.21;26.50
76086;BME280;64791;0.000;0.000;2023-08-07T09:15:03;93408.94;;;30.45;27.17
76086;BME280;64791;0.000;0.000;2023-08-07T09:17:33;93405.50;;;30.55;25.91
76086;BME280;64791;0.000;0.000;2023-08-07T09:20:01;93405.72;;;30.17;26.46
76086;BME280;64791;0.000;0.000;2023-08-07T09:22:29;93403.78;;;29.82;26.63
76086;BME280;64791;0.000;0.000;2023-08-07T09:24:55;93405.88;;;29.77;26.78
76086;BME280;64791;0.000;0.000;2023-08-07T09:27:21;93396.81;;;29.89;25.88
76086;BME280;64791;0.000;0.000;2023-08-07T09:29:48;93405.09;;;29.73;25.89
76086;BME280;64791;0.000;0.000;2023-08-07T09:32:14;93409.59;;;29.86;27.40
76086;BME280;64791;0.000;0.000;2023-08-07T09:34:40;93404.34;;;30.18;27.79
76086;BME280;64791;0.000;0.000;2023-08-07T09:37:07;93396.94;;;30.55;27.20
76086;BME280;64791;0.000;0.000;2023-08-07T09:39:32;93397.34;;;30.91;24.29
76086;BME280;64791;0.000;0.000;2023-08-07T09:41:58;93396.47;;;30.74;25.59
76086;BME280;64791;0.000;0.000;2023-08-07T09:44:24;93399.47;;;30.91;26.40
76086;BME280;64791;0.000;0.000;2023-08-07T09:46:50;93387.06;;;31.32;25.06
76086;BME280;64791;0.000;0.000;2023-08-07T09:49:17;93389.22;;;31.35;24.35
76086;BME280;64791;0.000;0.000;2023-08-07T09:51:44;93387.88;;;31.44;24.11
76086;BME280;64791;0.000;0.000;2023-08-07T09:54:10;93389.81;;;31.24;24.68
76086;BME280;64791;0.000;0.000;2023-08-07T09:56:37;93377.78;;;31.31;25.81
76086;BME280;64791;0.000;0.000;2023-08-07T09:59:03;93378.78;;;31.62;23.25
76086;BME280;64791;0.000;0.000;2023-08-07T10:01:29;93383.56;;;31.43;25.69
76086;BME280;64791;0.000;0.000;2023-08-07T10:03:55;93386.44;;;31.45;23.54
76086;BME280;64791;0.000;0.000;2023-08-07T10:06:21;93390.88;;;31.63;22.50
76086;BME280;64791;0.000;0.000;2023-08-07T10:08:48;93397.31;;;31.67;23.56
76086;BME280;64791;0.000;0.000;2023-08-07T10:11:14;93385.28;;;31.77;23.23
76086;BME280;64791;0.000;0.000;2023-08-07T10:13:41;93390.31;;;31.84;23.68
76086;BME280;64791;0.000;0.000;2023-08-07T10:16:07;93379.66;;;31.93;22.22
76086;BME280;64791;0.000;0.000;2023-08-07T10:18:33;93389.47;;;31.62;25.04
76086;BME280;64791;0.000;0.000;2023-08-07T10:21:00;93385.78;;;31.47;23.79
76086;BME280;64791;0.000;0.000;2023-08-07T10:23:26;93380.38;;;31.89;24.27
76086;BME280;64791;0.000;0.000;2023-08-07T10:25:52;93381.63;;;31.64;23.96
76086;BME280;64791;0.000;0.000;2023-08-07T10:28:19;93381.84;;;31.96;23.92
76086;BME280;64791;0.000;0.000;2023-08-07T10:30:45;93374.75;;;32.03;24.38
76086;BME280;64791;0.000;0.000;2023-08-07T10:33:12;93375.63;;;32.40;22.98
76086;BME280;64791;0.000;0.000;2023-08-07T10:35:39;93380.03;;;32.65;22.12
76086;BME280;64791;0.000;0.000;2023-08-07T10:38:10;93381.97;;;32.24;25.39
76086;BME280;64791;0.000;0.000;2023-08-07T10:40:57;93380.75;;;32.68;23.50
76086;BME280;64791;0.000;0.000;2023-08-07T10:43:22;93370.09;;;32.82;23.52
76086;BME280;64791;0.000;0.000;2023-08-07T10:45:49;93376.53;;;32.97;22.20
76086;BME280;64791;0.000;0.000;2023-08-07T10:48:44;93369.25;;;32.50;23.91
76086;BME280;64791;0.000;0.000;2023-08-07T10:51:13;93375.63;;;32.36;24.81
76086;BME280;64791;0.000;0.000;2023-08-07T10:53:41;93370.03;;;32.62;24.15
76086;BME280;64791;0.000;0.000;2023-08-07T10:56:10;93372.91;;;32.74;24.35
76086;BME280;64791;0.000;0.000;2023-08-07T10:58:36;93370.13;;;33.07;23.30
76086;BME280;64791;0.000;0.000;2023-08-07T11:01:22;93368.72;;;33.18;23.58
76086;BME280;64791;0.000;0.000;2023-08-07T11:03:49;93365.84;;;33.26;23.58
76086;BME280;64791;0.000;0.000;2023-08-07T11:06:16;93352.97;;;33.09;22.89
76086;BME280;64791;0.000;0.000;2023-08-07T11:08:42;93362.28;;;33.19;22.69
76086;BME280;64791;0.000;0.000;2023-08-07T11:11:08;93361.53;;;32.90;23.62
76086;BME280;64791;0.000;0.000;2023-08-07T11:13:34;93364.38;;;32.84;22.55
76086;BME280;64791;0.000;0.000;2023-08-07T11:16:01;93354.41;;;32.99;22.79
76086;BME280;64791;0.000;0.000;2023-08-07T11:18:27;93348.00;;;33.03;21.75
76086;BME280;64791;0.000;0.000;2023-08-07T11:20:54;93347.22;;;32.90;23.88
76086;BME280;64791;0.000;0.000;2023-08-07T11:23:24;93340.84;;;33.26;22.02
76086;BME280;64791;0.000;0.000;2023-08-07T11:25:51;93332.94;;;32.88;22.58
76086;BME280;64791;0.000;0.000;2023-08-07T11:28:20;93337.94;;;32.82;24.06
76086;BME280;64791;0.000;0.000;2023-08-07T11:30:48;93331.53;;;32.99;23.88
76086;BME280;64791;0.000;0.000;2023-08-07T11:33:14;93321.53;;;33.07;22.28
76086;BME280;64791;0.000;0.000;2023-08-07T11:35:44;93327.25;;;33.59;22.46
76086;BME280;64791;0.000;0.000;2023-08-07T11:38:10;93322.25;;;33.37;22.87
76086;BME280;64791;0.000;0.000;2023-08-07T11:40:36;93328.66;;;33.62;23.03
76086;BME280;64791;0.000;0.000;2023-08-07T11:43:02;93323.66;;;33.64;21.31
76086;BME280;64791;0.000;0.000;2023-08-07T11:45:28;93320.81;;;33.48;22.34
76086;BME280;64791;0.000;0.000;2023-08-07T11:47:58;93322.97;;;33.18;21.90
76086;BME280;64791;0.000;0.000;2023-08-07T11:50:25;93320.78;;;32.82;23.26
76086;BME280;64791;0.000;0.000;2023-08-07T11:52:53;93318.66;;;33.13;23.09
76086;BME280;64791;0.000;0.000;2023-08-07T11:55:19;93317.19;;;32.67;22.91
76086;BME280;64791;0.000;0.000;2023-08-07T11:58:11;93310.09;;;33.11;21.41
76086;BME280;64791;0.000;0.000;2023-08-07T12:01:05;93310.78;;;33.49;22.51
76086;BME280;64791;0.000;0.000;2023-08-07T12:03:32;93310.75;;;33.80;21.45
76086;BME280;64791;0.000;0.000;2023-08-07T12:06:01;93307.19;;;33.77;22.71
76086;BME280;64791;0.000;0.000;2023-08-07T12:08:31;93305.03;;;33.90;23.53
76086;BME280;64791;0.000;0.000;2023-08-07T12:10:58;93302.88;;;34.00;23.16
76086;BME280;64791;0.000;0.000;2023-08-07T12:13:24;93302.06;;;34.20;23.11
76086;BME280;64791;0.000;0.000;2023-08-07T12:15:52;93291.97;;;34.37;22.82
76086;BME280;64791;0.000;0.000;2023-08-07T12:18:19;93295.53;;;34.37;23.35
76086;BME280;64791;0.000;0.000;2023-08-07T12:20:46;93291.94;;;34.41;22.80
76086;BME280;64791;0.000;0.000;2023-08-07T12:23:14;93287.06;;;34.07;21.45
76086;BME280;64791;0.000;0.000;2023-08-07T12:25:42;93279.34;;;33.39;22.82
76086;BME280;64791;0.000;0.000;2023-08-07T12:28:08;93280.81;;;33.16;23.86
76086;BME280;64791;0.000;0.000;2023-08-07T12:30:34;93290.06;;;32.98;23.94
76086;BME280;64791;0.000;0.000;2023-08-07T12:33:00;93287.22;;;33.55;23.29
76086;BME280;64791;0.000;0.000;2023-08-07T12:35:28;93278.59;;;33.71;22.72
76086;BME280;64791;0.000;0.000;2023-08-07T12:37:54;93278.41;;;34.25;21.66
76086;BME280;64791;0.000;0.000;2023-08-07T12:40:20;93284.84;;;34.30;22.55
76086;BME280;64791;0.000;0.000;2023-08-07T12:42:46;93283.22;;;34.63;20.65
76086;BME280;64791;0.000;0.000;2023-08-07T12:45:13;93284.03;;;34.50;22.48
76086;BME280;64791;0.000;0.000;2023-08-07T12:47:41;93286.91;;;34.43;23.04
76086;BME280;64791;0.000;0.000;2023-08-07T12:50:08;93285.50;;;34.38;21.95
76086;BME280;64791;0.000;0.000;2023-08-07T12:52:34;93287.00;;;34.23;21.61
76086;BME280;64791;0.000;0.000;2023-08-07T12:55:00;93286.31;;;34.17;22.54
76086;BME280;64791;0.000;0.000;2023-08-07T12:57:26;93291.94;;;34.35;22.66
76086;BME280;64791;0.000;0.000;2023-08-07T12:59:52;93286.88;;;34.56;22.84
76086;BME280;64791;0.000;0.000;2023-08-07T13:02:44;93289.59;;;34.80;22.39
76086;BME280;64791;0.000;0.000;2023-08-07T13:05:12;93285.94;;;34.85;21.22
76086;BME280;64791;0.000;0.000;2023-08-07T13:08:03;93288.38;;;34.36;22.38
76086;BME280;64791;0.000;0.000;2023-08-07T13:10:29;93287.63;;;34.40;21.80